sensor_id;sensor_type;location;lat;lon;timestamp;P1;durP1;ratioP1;P2;durP2;ratioP2
16099;SDS011;8154;50.830;12.082;2023-06-10T00:02:01;1.70;;;1.60;;
16099;SDS011;8154;50.830;12.082;2023-06-10T00:04:27;1.73;;;1.63;;
16099;SDS011;8154;50.830;12.082;2023-06-10T00:06:53;1.70;;;1.60;;
16099;SDS011;8154;50.830;12.082;2023-06-10T00:09:19;1.70;;;1.60;;
16099;SDS011;8154;50.830;12.082;2023-06-10T00:11:47;1.80;;;1.70;;
16099;SDS011;8154;50.830;12.082;2023-06-10T00:14:13;1.70;;;1.60;;
16099;SDS011;8154;50.830;12.082;2023-06-10T00:16:40;1.52;;;1.42;;
16099;SDS011;8154;50.830;12.082;2023-06-10T00:19:06;1.67;;;1.58;;
16099;SDS011;8154;50.830;12.082;2023-06-10T00:21:34;1.60;;;1.50;;
16099;SDS011;8154;50.830;12.082;2023-06-10T00:24:06;1.60;;;1.50;;
16099;SDS011;8154;50.830;12.082;2023-06-10T00:26:35;1.80;;;1.70;;
16099;SDS011;8154;50.830;12.082;2023-06-10T00:29:01;1.77;;;1.67;;
16099;SDS011;8154;50.830;12.082;2023-06-10T00:31:27;1.67;;;1.58;;
16099;SDS011;8154;50.830;12.082;2023-06-10T00:33:53;1.70;;;1.60;;
16099;SDS011;8154;50.830;12.082;2023-06-10T00:36:20;1.60;;;1.50;;
16099;SDS011;8154;50.830;12.082;2023-06-10T00:38:46;1.63;;;1.52;;
16099;SDS011;8154;50.830;12.082;2023-06-10T00:41:12;1.50;;;1.40;;
16099;SDS011;8154;50.830;12.082;2023-06-10T00:43:38;1.60;;;1.50;;
16099;SDS011;8154;50.830;12.082;2023-06-10T00:46:04;1.63;;;1.52;;
16099;SDS011;8154;50.830;12.082;2023-06-10T00:48:31;1.80;;;1.70;;
16099;SDS011;8154;50.830;12.082;2023-06-10T00:50:58;1.60;;;1.50;;
16099;SDS011;8154;50.830;12.082;2023-06-10T00:53:25;1.65;;;1.55;;
16099;SDS011;8154;50.830;12.082;2023-06-10T00:55:52;1.70;;;1.60;;
16099;SDS011;8154;50.830;12.082;2023-06-10T00:58:18;1.50;;;1.40;;
16099;SDS011;8154;50.830;12.082;2023-06-10T01:00:45;1.65;;;1.55;;
16099;SDS011;8154;50.830;12.082;2023-06-10T01:03:12;1.70;;;1.60;;
16099;SDS011;8154;50.830;12.082;2023-06-10T01:05:38;1.60;;;1.50;;
16099;SDS011;8154;50.830;12.082;2023-06-10T01:08:15;1.70;;;1.60;;
16099;SDS011;8154;50.830;12.082;2023-06-10T01:10:52;1.60;;;1.50;;
16099;SDS011;8154;50.830;12.082;2023-06-10T01:13:23;1.70;;;1.60;;
16099;SDS011;8154;50.830;12.082;2023-06-10T01:15:55;1.70;;;1.60;;
16099;SDS011;8154;50.830;12.082;2023-06-10T01:18:22;1.60;;;1.50;;
16099;SDS011;8154;50.830;12.082;2023-06-10T01:20:49;1.63;;;1.52;;
16099;SDS011;8154;50.830;12.082;2023-06-10T01:23:15;1.52;;;1.42;;
16099;SDS011;8154;50.830;12.082;2023-06-10T01:25:44;1.58;;;1.48;;
16099;SDS011;8154;50.830;12.082;2023-06-10T01:28:36;1.80;;;1.70;;
16099;SDS011;8154;50.830;12.082;2023-06-10T01:31:10;1.80;;;1.70;;
16099;SDS011;8154;50.830;12.082;2023-06-10T01:33:45;1.50;;;1.40;;
16099;SDS011;8154;50.830;12.082;2023-06-10T01:36:13;1.50;;;1.40;;
16099;SDS011;8154;50.830;12.082;2023-06-10T01:38:43;1.40;;;1.40;;
16099;SDS011;8154;50.830;12.082;2023-06-10T01:41:13;1.55;;;1.45;;
16099;SDS011;8154;50.830;12.082;2023-06-10T01:43:42;1.70;;;1.60;;
16099;SDS011;8154;50.830;12.082;2023-06-10T01:46:10;1.70;;;1.60;;
16099;SDS011;8154;50.830;12.082;2023-06-10T01:48:41;1.60;;;1.50;;
16099;SDS011;8154;50.830;12.082;2023-06-10T01:51:07;1.60;;;1.50;;
16099;SDS011;8154;50.830;12.082;2023-06-10T01:53:33;1.65;;;1.55;;
16099;SDS011;8154;50.830;12.082;2023-06-10T01:55:59;1.55;;;1.45;;
16099;SDS011;8154;50.830;12.082;2023-06-10T01:58:25;1.70;;;1.60;;
16099;SDS011;8154;50.830;12.082;2023-06-10T02:00:51;1.63;;;1.52;;
16099;SDS011;8154;50.830;12.082;2023-06-10T02:03:18;1.38;;;1.35;;
16099;SDS011;8154;50.830;12.082;2023-06-10T02:05:44;1.40;;;1.40;;
16099;SDS011;8154;50.830;12.082;2023-06-10T02:08:10;1.70;;;1.60;;
16099;SDS011;8154;50.830;12.082;2023-06-10T02:10:36;1.70;;;1.60;;
16099;SDS011;8154;50.830;12.082;2023-06-10T02:13:02;1.58;;;1.48;;
16099;SDS011;8154;50.830;12.082;2023-06-10T02:15:28;1.70;;;1.60;;
16099;SDS011;8154;50.830;12.082;2023-06-10T02:17:54;1.65;;;1.55;;
16099;SDS011;8154;50.830;12.082;2023-06-10T02:20:22;1.60;;;1.50;;
16099;SDS011;8154;50.830;12.082;2023-06-10T02:22:48;1.60;;;1.50;;
16099;SDS011;8154;50.830;12.082;2023-06-10T02:25:14;1.70;;;1.60;;
16099;SDS011;8154;50.830;12.082;2023-06-10T02:27:40;1.50;;;1.40;;
16099;SDS011;8154;50.830;12.082;2023-06-10T02:30:07;1.60;;;1.50;;
16099;SDS011;8154;50.830;12.082;2023-06-10T02:32:36;1.70;;;1.60;;
16099;SDS011;8154;50.830;12.082;2023-06-10T02:35:02;1.50;;;1.40;;
16099;SDS011;8154;50.830;12.082;2023-06-10T02:37:28;1.63;;;1.52;;
16099;SDS011;8154;50.830;12.082;2023-06-10T02:39:54;1.50;;;1.40;;
16099;SDS011;8154;50.830;12.082;2023-06-10T02:42:20;1.60;;;1.50;;
16099;SDS011;8154;50.830;12.082;2023-06-10T02:44:47;1.75;;;1.65;;
16099;SDS011;8154;50.830;12.082;2023-06-10T02:47:13;1.60;;;1.50;;
16099;SDS011;8154;50.830;12.082;2023-06-10T02:49:39;1.60;;;1.50;;
16099;SDS011;8154;50.830;12.082;2023-06-10T02:52:05;1.52;;;1.42;;
16099;SDS011;8154;50.830;12.082;2023-06-10T02:54:33;1.80;;;1.70;;
16099;SDS011;8154;50.830;12.082;2023-06-10T02:56:59;1.70;;;1.60;;
16099;SDS011;8154;50.830;12.082;2023-06-10T02:59:25;1.52;;;1.42;;
16099;SDS011;8154;50.830;12.082;2023-06-10T03:01:52;1.70;;;1.60;;
16099;SDS011;8154;50.830;12.082;2023-06-10T03:04:19;1.70;;;1.60;;
16099;SDS011;8154;50.830;12.082;2023-06-10T03:06:46;1.55;;;1.45;;
16099;SDS011;8154;50.830;12.082;2023-06-10T03:09:12;1.60;;;1.50;;
16099;SDS011;8154;50.830;12.082;2023-06-10T03:11:39;1.67;;;1.58;;
16099;SDS011;8154;50.830;12.082;2023-06-10T03:14:05;1.60;;;1.50;;
16099;SDS011;8154;50.830;12.082;2023-06-10T03:16:31;1.38;;;1.33;;
16099;SDS011;8154;50.830;12.082;2023-06-10T03:18:58;1.60;;;1.50;;
16099;SDS011;8154;50.830;12.082;2023-06-10T03:21:24;1.52;;;1.42;;
16099;SDS011;8154;50.830;12.082;2023-06-10T03:23:50;1.60;;;1.50;;
16099;SDS011;8154;50.830;12.082;2023-06-10T03:26:16;1.50;;;1.40;;
16099;SDS011;8154;50.830;12.082;2023-06-10T03:28:42;1.50;;;1.40;;
16099;SDS011;8154;50.830;12.082;2023-06-10T03:31:08;1.70;;;1.60;;
16099;SDS011;8154;50.830;12.082;2023-06-10T03:33:34;1.70;;;1.60;;
16099;SDS011;8154;50.830;12.082;2023-06-10T03:36:01;1.58;;;1.48;;
16099;SDS011;8154;50.830;12.082;2023-06-10T03:38:27;1.58;;;1.48;;
16099;SDS011;8154;50.830;12.082;2023-06-10T03:40:53;1.70;;;1.60;;
16099;SDS011;8154;50.830;12.082;2023-06-10T03:43:20;1.75;;;1.65;;
16099;SDS011;8154;50.830;12.082;2023-06-10T03:45:47;1.45;;;1.40;;
16099;SDS011;8154;50.830;12.082;2023-06-10T03:48:13;1.60;;;1.50;;
16099;SDS011;8154;50.830;12.082;2023-06-10T03:50:40;1.50;;;1.40;;
16099;SDS011;8154;50.830;12.082;2023-06-10T03:53:06;1.40;;;1.40;;
16099;SDS011;8154;50.830;12.082;2023-06-10T03:55:32;1.60;;;1.50;;
16099;SDS011;8154;50.830;12.082;2023-06-10T03:57:58;1.70;;;1.60;;
16099;SDS011;8154;50.830;12.082;2023-06-10T04:00:24;1.70;;;1.60;;
16099;SDS011;8154;50.830;12.082;2023-06-10T04:02:51;1.58;;;1.48;;
16099;SDS011;8154;50.830;12.082;2023-06-10T04:05:18;1.70;;;1.60;;
16099;SDS011;8154;50.830;12.082;2023-06-10T04:07:48;1.60;;;1.50;;
16099;SDS011;8154;50.830;12.082;2023-06-10T04:10:15;1.70;;;1.60;;
16099;SDS011;8154;50.830;12.082;2023-06-10T04:12:41;1.60;;;1.50;;
16099;SDS011;8154;50.830;12.082;2023-06-10T04:15:07;1.70;;;1.60;;
16099;SDS011;8154;50.830;12.082;2023-06-10T04:17:34;1.55;;;1.45;;
16099;SDS011;8154;50.830;12.082;2023-06-10T04:20:03;1.70;;;1.60;;
16099;SDS011;8154;50.830;12.082;2023-06-10T04:22:32;1.70;;;1.60;;
16099;SDS011;8154;50.830;12.082;2023-06-10T04:24:58;1.58;;;1.48;;
16099;SDS011;8154;50.830;12.082;2023-06-10T04:27:24;1.50;;;1.40;;
16099;SDS011;8154;50.830;12.082;2023-06-10T04:29:50;1.60;;;1.50;;
16099;SDS011;8154;50.830;12.082;2023-06-10T04:32:16;1.50;;;1.40;;
16099;SDS011;8154;50.830;12.082;2023-06-10T04:34:42;1.60;;;1.50;;
16099;SDS011;8154;50.830;12.082;2023-06-10T04:37:08;1.50;;;1.40;;
16099;SDS011;8154;50.830;12.082;2023-06-10T04:39:35;1.30;;;1.30;;
16099;SDS011;8154;50.830;12.082;2023-06-10T04:42:01;1.55;;;1.45;;
16099;SDS011;8154;50.830;12.082;2023-06-10T04:44:27;1.55;;;1.45;;
16099;SDS011;8154;50.830;12.082;2023-06-10T04:46:54;1.70;;;1.60;;
16099;SDS011;8154;50.830;12.082;2023-06-10T04:49:21;1.52;;;1.42;;
16099;SDS011;8154;50.830;12.082;2023-06-10T04:51:47;1.30;;;1.30;;
16099;SDS011;8154;50.830;12.082;2023-06-10T04:54:13;1.60;;;1.50;;
16099;SDS011;8154;50.830;12.082;2023-06-10T04:56:39;1.50;;;1.40;;
16099;SDS011;8154;50.830;12.082;2023-06-10T04:59:05;1.60;;;1.50;;
16099;SDS011;8154;50.830;12.082;2023-06-10T05:01:32;1.50;;;1.40;;
16099;SDS011;8154;50.830;12.082;2023-06-10T05:03:58;1.60;;;1.50;;
16099;SDS011;8154;50.830;12.082;2023-06-10T05:06:24;1.60;;;1.50;;
16099;SDS011;8154;50.830;12.082;2023-06-10T05:08:50;1.60;;;1.50;;
16099;SDS011;8154;50.830;12.082;2023-06-10T05:11:16;1.60;;;1.50;;
16099;SDS011;8154;50.830;12.082;2023-06-10T05:13:42;1.50;;;1.40;;
16099;SDS011;8154;50.830;12.082;2023-06-10T05:16:10;1.60;;;1.50;;
16099;SDS011;8154;50.830;12.082;2023-06-10T05:18:36;1.52;;;1.42;;
16099;SDS011;8154;50.830;12.082;2023-06-10T05:21:02;1.50;;;1.40;;
16099;SDS011;8154;50.830;12.082;2023-06-10T05:23:28;1.30;;;1.30;;
16099;SDS011;8154;50.830;12.082;2023-06-10T05:25:55;1.40;;;1.40;;
16099;SDS011;8154;50.830;12.082;2023-06-10T05:28:21;1.52;;;1.42;;
16099;SDS011;8154;50.830;12.082;2023-06-10T05:30:47;1.50;;;1.40;;
16099;SDS011;8154;50.830;12.082;2023-06-10T05:33:13;1.50;;;1.40;;
16099;SDS011;8154;50.830;12.082;2023-06-10T05:35:40;1.52;;;1.42;;
16099;SDS011;8154;50.830;12.082;2023-06-10T05:38:06;1.50;;;1.40;;
16099;SDS011;8154;50.830;12.082;2023-06-10T05:40:32;1.60;;;1.50;;
16099;SDS011;8154;50.830;12.082;2023-06-10T05:42:58;1.40;;;1.40;;
16099;SDS011;8154;50.830;12.082;2023-06-10T05:45:24;1.55;;;1.45;;
16099;SDS011;8154;50.830;12.082;2023-06-10T05:47:51;1.60;;;1.50;;
16099;SDS011;8154;50.830;12.082;2023-06-10T05:50:17;1.55;;;1.45;;
16099;SDS011;8154;50.830;12.082;2023-06-10T05:52:43;1.30;;;1.30;;
16099;SDS011;8154;50.830;12.082;2023-06-10T05:55:09;1.20;;;1.20;;
16099;SDS011;8154;50.830;12.082;2023-06-10T05:57:35;1.33;;;1.30;;
16099;SDS011;8154;50.830;12.082;2023-06-10T06:00:02;1.45;;;1.35;;
16099;SDS011;8154;50.830;12.082;2023-06-10T06:02:28;1.45;;;1.35;;
16099;SDS011;8154;50.830;12.082;2023-06-10T06:04:56;1.20;;;1.20;;
16099;SDS011;8154;50.830;12.082;2023-06-10T06:07:22;1.35;;;1.35;;
16099;SDS011;8154;50.830;12.082;2023-06-10T06:09:48;1.38;;;1.30;;
16099;SDS011;8154;50.830;12.082;2023-06-10T06:12:15;1.20;;;1.20;;
16099;SDS011;8154;50.830;12.082;2023-06-10T06:14:42;1.55;;;1.45;;
16099;SDS011;8154;50.830;12.082;2023-06-10T06:17:08;1.33;;;1.30;;
16099;SDS011;8154;50.830;12.082;2023-06-10T06:19:34;1.42;;;1.33;;
16099;SDS011;8154;50.830;12.082;2023-06-10T06:22:00;1.40;;;1.40;;
16099;SDS011;8154;50.830;12.082;2023-06-10T06:24:26;1.35;;;1.30;;
16099;SDS011;8154;50.830;12.082;2023-06-10T06:26:52;1.48;;;1.38;;
16099;SDS011;8154;50.830;12.082;2023-06-10T06:29:18;1.40;;;1.40;;
16099;SDS011;8154;50.830;12.082;2023-06-10T06:31:44;1.40;;;1.40;;
16099;SDS011;8154;50.830;12.082;2023-06-10T06:34:10;1.30;;;1.30;;
16099;SDS011;8154;50.830;12.082;2023-06-10T06:36:36;1.30;;;1.30;;
16099;SDS011;8154;50.830;12.082;2023-06-10T06:39:02;1.30;;;1.30;;
16099;SDS011;8154;50.830;12.082;2023-06-10T06:41:28;1.20;;;1.20;;
16099;SDS011;8154;50.830;12.082;2023-06-10T06:43:57;1.13;;;1.13;;
16099;SDS011;8154;50.830;12.082;2023-06-10T06:46:23;1.30;;;1.30;;
16099;SDS011;8154;50.830;12.082;2023-06-10T06:48:49;1.30;;;1.30;;
16099;SDS011;8154;50.830;12.082;2023-06-10T06:51:15;1.30;;;1.30;;
16099;SDS011;8154;50.830;12.082;2023-06-10T06:53:41;1.33;;;1.25;;
16099;SDS011;8154;50.830;12.082;2023-06-10T06:56:10;1.42;;;1.33;;
16099;SDS011;8154;50.830;12.082;2023-06-10T06:58:37;1.20;;;1.20;;
16099;SDS011;8154;50.830;12.082;2023-06-10T07:01:03;1.50;;;1.40;;
16099;SDS011;8154;50.830;12.082;2023-06-10T07:03:32;1.30;;;1.30;;
16099;SDS011;8154;50.830;12.082;2023-06-10T07:05:58;1.30;;;1.30;;
16099;SDS011;8154;50.830;12.082;2023-06-10T07:08:26;1.20;;;1.20;;
16099;SDS011;8154;50.830;12.082;2023-06-10T07:10:52;1.20;;;1.20;;
16099;SDS011;8154;50.830;12.082;2023-06-10T07:13:20;1.25;;;1.25;;
16099;SDS011;8154;50.830;12.082;2023-06-10T07:15:46;1.20;;;1.20;;
16099;SDS011;8154;50.830;12.082;2023-06-10T07:18:12;1.50;;;1.40;;
16099;SDS011;8154;50.830;12.082;2023-06-10T07:20:38;1.27;;;1.27;;
16099;SDS011;8154;50.830;12.082;2023-06-10T07:23:04;1.30;;;1.30;;
16099;SDS011;8154;50.830;12.082;2023-06-10T07:25:31;1.23;;;1.23;;
16099;SDS011;8154;50.830;12.082;2023-06-10T07:27:58;1.30;;;1.30;;
16099;SDS011;8154;50.830;12.082;2023-06-10T07:30:24;1.30;;;1.30;;
16099;SDS011;8154;50.830;12.082;2023-06-10T07:32:50;1.27;;;1.27;;
16099;SDS011;8154;50.830;12.082;2023-06-10T07:35:17;1.15;;;1.15;;
16099;SDS011;8154;50.830;12.082;2023-06-10T07:37:43;1.20;;;1.20;;
16099;SDS011;8154;50.830;12.082;2023-06-10T07:40:10;1.20;;;1.20;;
16099;SDS011;8154;50.830;12.082;2023-06-10T07:42:36;1.40;;;1.30;;
16099;SDS011;8154;50.830;12.082;2023-06-10T07:45:03;1.50;;;1.40;;
16099;SDS011;8154;50.830;12.082;2023-06-10T07:47:30;1.10;;;1.10;;
16099;SDS011;8154;50.830;12.082;2023-06-10T07:49:59;1.20;;;1.20;;
16099;SDS011;8154;50.830;12.082;2023-06-10T07:52:25;1.20;;;1.20;;
16099;SDS011;8154;50.830;12.082;2023-06-10T07:54:51;1.20;;;1.20;;
16099;SDS011;8154;50.830;12.082;2023-06-10T07:57:18;1.17;;;1.17;;
16099;SDS011;8154;50.830;12.082;2023-06-10T07:59:45;1.30;;;1.20;;
16099;SDS011;8154;50.830;12.082;2023-06-10T08:02:11;1.30;;;1.30;;
16099;SDS011;8154;50.830;12.082;2023-06-10T08:04:37;1.10;;;1.10;;
16099;SDS011;8154;50.830;12.082;2023-06-10T08:07:03;1.10;;;1.10;;
16099;SDS011;8154;50.830;12.082;2023-06-10T08:09:30;1.20;;;1.20;;
16099;SDS011;8154;50.830;12.082;2023-06-10T08:11:56;1.25;;;1.23;;
16099;SDS011;8154;50.830;12.082;2023-06-10T08:14:22;1.20;;;1.20;;
16099;SDS011;8154;50.830;12.082;2023-06-10T08:16:48;1.30;;;1.30;;
16099;SDS011;8154;50.830;12.082;2023-06-10T08:19:14;1.20;;;1.20;;
16099;SDS011;8154;50.830;12.082;2023-06-10T08:21:41;1.10;;;1.10;;
16099;SDS011;8154;50.830;12.082;2023-06-10T08:24:07;1.10;;;1.10;;
16099;SDS011;8154;50.830;12.082;2023-06-10T08:26:33;1.20;;;1.20;;
16099;SDS011;8154;50.830;12.082;2023-06-10T08:28:59;1.30;;;1.30;;
16099;SDS011;8154;50.830;12.082;2023-06-10T08:31:25;1.23;;;1.23;;
16099;SDS011;8154;50.830;12.082;2023-06-10T08:33:51;1.30;;;1.30;;
16099;SDS011;8154;50.830;12.082;2023-06-10T08:36:17;1.10;;;1.10;;
16099;SDS011;8154;50.830;12.082;2023-06-10T08:38:43;1.10;;;1.10;;
16099;SDS011;8154;50.830;12.082;2023-06-10T08:41:10;1.20;;;1.20;;
16099;SDS011;8154;50.830;12.082;2023-06-10T08:43:50;1.10;;;1.10;;
16099;SDS011;8154;50.830;12.082;2023-06-10T08:46:29;1.10;;;1.10;;
16099;SDS011;8154;50.830;12.082;2023-06-10T08:48:57;1.20;;;1.20;;
16099;SDS011;8154;50.830;12.082;2023-06-10T08:51:30;1.23;;;1.20;;
16099;SDS011;8154;50.830;12.082;2023-06-10T08:54:01;1.20;;;1.20;;
16099;SDS011;8154;50.830;12.082;2023-06-10T08:56:31;1.20;;;1.20;;
16099;SDS011;8154;50.830;12.082;2023-06-10T08:59:01;1.30;;;1.30;;
16099;SDS011;8154;50.830;12.082;2023-06-10T09:01:28;1.30;;;1.30;;
16099;SDS011;8154;50.830;12.082;2023-06-10T09:03:55;1.23;;;1.23;;
16099;SDS011;8154;50.830;12.082;2023-06-10T09:06:23;1.20;;;1.20;;
16099;SDS011;8154;50.830;12.082;2023-06-10T09:08:49;1.17;;;1.17;;
16099;SDS011;8154;50.830;12.082;2023-06-10T09:11:16;1.20;;;1.20;;
16099;SDS011;8154;50.830;12.082;2023-06-10T09:13:42;1.20;;;1.20;;
16099;SDS011;8154;50.830;12.082;2023-06-10T09:16:08;1.38;;;1.30;;
16099;SDS011;8154;50.830;12.082;2023-06-10T09:18:37;1.10;;;1.10;;
16099;SDS011;8154;50.830;12.082;2023-06-10T09:21:03;1.20;;;1.20;;
16099;SDS011;8154;50.830;12.082;2023-06-10T09:23:29;1.23;;;1.23;;
16099;SDS011;8154;50.830;12.082;2023-06-10T09:25:57;1.10;;;1.10;;
16099;SDS011;8154;50.830;12.082;2023-06-10T09:28:23;1.35;;;1.30;;
16099;SDS011;8154;50.830;12.082;2023-06-10T09:30:50;1.08;;;1.08;;
16099;SDS011;8154;50.830;12.082;2023-06-10T09:33:28;1.20;;;1.20;;
16099;SDS011;8154;50.830;12.082;2023-06-10T09:35:54;1.15;;;1.15;;
16099;SDS011;8154;50.830;12.082;2023-06-10T09:38:22;1.20;;;1.20;;
16099;SDS011;8154;50.830;12.082;2023-06-10T09:40:52;1.15;;;1.15;;
16099;SDS011;8154;50.830;12.082;2023-06-10T09:43:20;1.15;;;1.15;;
16099;SDS011;8154;50.830;12.082;2023-06-10T09:45:50;1.30;;;1.20;;
16099;SDS011;8154;50.830;12.082;2023-06-10T09:48:19;1.20;;;1.20;;
16099;SDS011;8154;50.830;12.082;2023-06-10T09:50:45;1.30;;;1.30;;
16099;SDS011;8154;50.830;12.082;2023-06-10T09:53:12;1.40;;;1.30;;
16099;SDS011;8154;50.830;12.082;2023-06-10T09:55:38;1.20;;;1.20;;
16099;SDS011;8154;50.830;12.082;2023-06-10T09:58:05;1.02;;;1.02;;
16099;SDS011;8154;50.830;12.082;2023-06-10T10:00:33;1.42;;;1.05;;
16099;SDS011;8154;50.830;12.082;2023-06-10T10:03:00;1.30;;;1.20;;
16099;SDS011;8154;50.830;12.082;2023-06-10T10:05:28;1.20;;;1.20;;
16099;SDS011;8154;50.830;12.082;2023-06-10T10:07:55;1.23;;;1.23;;
16099;SDS011;8154;50.830;12.082;2023-06-10T10:10:22;1.20;;;1.20;;
16099;SDS011;8154;50.830;12.082;2023-06-10T10:12:54;1.20;;;1.20;;
16099;SDS011;8154;50.830;12.082;2023-06-10T10:15:25;1.20;;;1.20;;
16099;SDS011;8154;50.830;12.082;2023-06-10T10:18:04;1.20;;;1.20;;
16099;SDS011;8154;50.830;12.082;2023-06-10T10:20:33;1.20;;;1.20;;
16099;SDS011;8154;50.830;12.082;2023-06-10T10:23:02;1.20;;;1.20;;
16099;SDS011;8154;50.830;12.082;2023-06-10T10:25:34;1.30;;;1.30;;
16099;SDS011;8154;50.830;12.082;2023-06-10T10:28:10;1.13;;;1.13;;
16099;SDS011;8154;50.830;12.082;2023-06-10T10:30:41;1.20;;;1.20;;
16099;SDS011;8154;50.830;12.082;2023-06-10T10:33:17;1.40;;;1.30;;
16099;SDS011;8154;50.830;12.082;2023-06-10T10:35:57;1.25;;;1.25;;
16099;SDS011;8154;50.830;12.082;2023-06-10T10:38:24;1.50;;;1.40;;
16099;SDS011;8154;50.830;12.082;2023-06-10T10:40:50;1.42;;;1.33;;
16099;SDS011;8154;50.830;12.082;2023-06-10T10:43:17;1.27;;;1.27;;
16099;SDS011;8154;50.830;12.082;2023-06-10T10:45:45;1.25;;;1.25;;
16099;SDS011;8154;50.830;12.082;2023-06-10T10:48:23;1.35;;;1.30;;
16099;SDS011;8154;50.830;12.082;2023-06-10T10:50:56;1.27;;;1.27;;
16099;SDS011;8154;50.830;12.082;2023-06-10T10:53:24;1.40;;;1.30;;
16099;SDS011;8154;50.830;12.082;2023-06-10T10:56:24;1.30;;;1.30;;
16099;SDS011;8154;50.830;12.082;2023-06-10T10:59:01;1.23;;;1.23;;
16099;SDS011;8154;50.830;12.082;2023-06-10T11:01:39;1.15;;;1.15;;
16099;SDS011;8154;50.830;12.082;2023-06-10T11:04:07;1.40;;;1.30;;
16099;SDS011;8154;50.830;12.082;2023-06-10T11:06:37;1.38;;;1.30;;
16099;SDS011;8154;50.830;12.082;2023-06-10T11:11:52;1.30;;;1.30;;
16099;SDS011;8154;50.830;12.082;2023-06-10T11:14:31;1.50;;;1.40;;
16099;SDS011;8154;50.830;12.082;2023-06-10T11:16:58;1.40;;;1.30;;
16099;SDS011;8154;50.830;12.082;2023-06-10T11:19:32;1.55;;;1.45;;
16099;SDS011;8154;50.830;12.082;2023-06-10T11:22:02;1.50;;;1.40;;
16099;SDS011;8154;50.830;12.082;2023-06-10T11:24:31;1.50;;;1.40;;
16099;SDS011;8154;50.830;12.082;2023-06-10T11:27:16;1.60;;;1.50;;
16099;SDS011;8154;50.830;12.082;2023-06-10T11:32:29;1.40;;;1.40;;
16099;SDS011;8154;50.830;12.082;2023-06-10T11:34:57;1.52;;;1.42;;
16099;SDS011;8154;50.830;12.082;2023-06-10T11:37:23;1.60;;;1.50;;
16099;SDS011;8154;50.830;12.082;2023-06-10T11:39:53;1.50;;;1.40;;
16099;SDS011;8154;50.830;12.082;2023-06-10T11:42:21;1.70;;;1.60;;
16099;SDS011;8154;50.830;12.082;2023-06-10T11:44:51;1.60;;;1.50;;
16099;SDS011;8154;50.830;12.082;2023-06-10T11:47:18;1.60;;;1.50;;
16099;SDS011;8154;50.830;12.082;2023-06-10T11:49:51;1.70;;;1.60;;
16099;SDS011;8154;50.830;12.082;2023-06-10T11:52:29;1.70;;;1.60;;
16099;SDS011;8154;50.830;12.082;2023-06-10T11:55:03;1.80;;;1.70;;
16099;SDS011;8154;50.830;12.082;2023-06-10T11:57:33;1.70;;;1.60;;
16099;SDS011;8154;50.830;12.082;2023-06-10T12:00:07;1.65;;;1.55;;
16099;SDS011;8154;50.830;12.082;2023-06-10T12:02:34;1.65;;;1.55;;
16099;SDS011;8154;50.830;12.082;2023-06-10T12:05:10;1.60;;;1.50;;
16099;SDS011;8154;50.830;12.082;2023-06-10T12:07:37;1.70;;;1.60;;
16099;SDS011;8154;50.830;12.082;2023-06-10T12:10:04;1.70;;;1.60;;
16099;SDS011;8154;50.830;12.082;2023-06-10T12:12:30;1.58;;;1.48;;
16099;SDS011;8154;50.830;12.082;2023-06-10T12:14:57;1.80;;;1.70;;
16099;SDS011;8154;50.830;12.082;2023-06-10T12:19:58;1.77;;;1.67;;
16099;SDS011;8154;50.830;12.082;2023-06-10T12:22:25;1.80;;;1.70;;
16099;SDS011;8154;50.830;12.082;2023-06-10T12:25:02;1.70;;;1.60;;
16099;SDS011;8154;50.830;12.082;2023-06-10T12:27:32;1.70;;;1.60;;
16099;SDS011;8154;50.830;12.082;2023-06-10T12:29:59;1.60;;;1.50;;
16099;SDS011;8154;50.830;12.082;2023-06-10T12:32:42;1.98;;;1.88;;
16099;SDS011;8154;50.830;12.082;2023-06-10T12:35:15;1.77;;;1.67;;
16099;SDS011;8154;50.830;12.082;2023-06-10T12:37:54;1.80;;;1.70;;
16099;SDS011;8154;50.830;12.082;2023-06-10T12:40:26;1.90;;;1.80;;
16099;SDS011;8154;50.830;12.082;2023-06-10T12:42:54;1.90;;;1.80;;
16099;SDS011;8154;50.830;12.082;2023-06-10T12:45:34;1.83;;;1.73;;
16099;SDS011;8154;50.830;12.082;2023-06-10T12:48:20;1.98;;;1.88;;
16099;SDS011;8154;50.830;12.082;2023-06-10T12:50:54;1.77;;;1.67;;
16099;SDS011;8154;50.830;12.082;2023-06-10T12:53:22;2.00;;;1.90;;
16099;SDS011;8154;50.830;12.082;2023-06-10T12:55:50;1.70;;;1.60;;
16099;SDS011;8154;50.830;12.082;2023-06-10T12:58:16;2.13;;;2.03;;
16099;SDS011;8154;50.830;12.082;2023-06-10T13:00:42;1.95;;;1.85;;
16099;SDS011;8154;50.830;12.082;2023-06-10T13:03:09;2.00;;;1.80;;
16099;SDS011;8154;50.830;12.082;2023-06-10T13:05:36;1.95;;;1.85;;
16099;SDS011;8154;50.830;12.082;2023-06-10T13:08:05;1.90;;;1.80;;
16099;SDS011;8154;50.830;12.082;2023-06-10T13:10:32;1.98;;;1.88;;
16099;SDS011;8154;50.830;12.082;2023-06-10T13:13:00;1.90;;;1.80;;
16099;SDS011;8154;50.830;12.082;2023-06-10T13:15:27;1.98;;;1.88;;
16099;SDS011;8154;50.830;12.082;2023-06-10T13:17:53;1.90;;;1.80;;
16099;SDS011;8154;50.830;12.082;2023-06-10T13:20:20;2.10;;;2.00;;
16099;SDS011;8154;50.830;12.082;2023-06-10T13:22:46;2.08;;;1.92;;
16099;SDS011;8154;50.830;12.082;2023-06-10T13:25:13;1.90;;;1.80;;
16099;SDS011;8154;50.830;12.082;2023-06-10T13:27:57;2.10;;;2.00;;
16099;SDS011;8154;50.830;12.082;2023-06-10T13:30:23;2.10;;;2.00;;
16099;SDS011;8154;50.830;12.082;2023-06-10T13:32:49;1.90;;;1.80;;
16099;SDS011;8154;50.830;12.082;2023-06-10T13:35:15;2.00;;;1.90;;
16099;SDS011;8154;50.830;12.082;2023-06-10T13:37:41;1.90;;;1.80;;
16099;SDS011;8154;50.830;12.082;2023-06-10T13:40:07;1.92;;;1.83;;
16099;SDS011;8154;50.830;12.082;2023-06-10T13:42:35;2.00;;;1.90;;
16099;SDS011;8154;50.830;12.082;2023-06-10T13:45:02;1.90;;;1.80;;
16099;SDS011;8154;50.830;12.082;2023-06-10T13:47:29;1.90;;;1.80;;
16099;SDS011;8154;50.830;12.082;2023-06-10T13:49:56;2.25;;;2.10;;
16099;SDS011;8154;50.830;12.082;2023-06-10T13:52:22;1.90;;;1.80;;
16099;SDS011;8154;50.830;12.082;2023-06-10T13:54:48;2.10;;;2.00;;
16099;SDS011;8154;50.830;12.082;2023-06-10T13:57:14;2.13;;;2.03;;
16099;SDS011;8154;50.830;12.082;2023-06-10T13:59:40;1.95;;;1.85;;
16099;SDS011;8154;50.830;12.082;2023-06-10T14:02:06;2.00;;;1.90;;
16099;SDS011;8154;50.830;12.082;2023-06-10T14:04:32;2.00;;;1.90;;
16099;SDS011;8154;50.830;12.082;2023-06-10T14:06:59;2.10;;;2.00;;
16099;SDS011;8154;50.830;12.082;2023-06-10T14:09:25;1.98;;;1.88;;
16099;SDS011;8154;50.830;12.082;2023-06-10T14:11:51;2.00;;;1.90;;
16099;SDS011;8154;50.830;12.082;2023-06-10T14:14:17;2.00;;;1.90;;
16099;SDS011;8154;50.830;12.082;2023-06-10T14:16:44;1.90;;;1.80;;
16099;SDS011;8154;50.830;12.082;2023-06-10T14:19:11;2.10;;;2.00;;
16099;SDS011;8154;50.830;12.082;2023-06-10T14:21:37;1.90;;;1.80;;
16099;SDS011;8154;50.830;12.082;2023-06-10T14:24:03;2.00;;;1.90;;
16099;SDS011;8154;50.830;12.082;2023-06-10T14:26:29;2.10;;;2.00;;
16099;SDS011;8154;50.830;12.082;2023-06-10T14:28:58;2.05;;;1.95;;
16099;SDS011;8154;50.830;12.082;2023-06-10T14:31:25;2.00;;;1.90;;
16099;SDS011;8154;50.830;12.082;2023-06-10T14:33:51;2.10;;;2.00;;
16099;SDS011;8154;50.830;12.082;2023-06-10T14:36:17;1.80;;;1.70;;
16099;SDS011;8154;50.830;12.082;2023-06-10T14:38:44;1.90;;;1.80;;
16099;SDS011;8154;50.830;12.082;2023-06-10T14:41:11;2.00;;;1.90;;
16099;SDS011;8154;50.830;12.082;2023-06-10T14:43:39;2.20;;;2.10;;
16099;SDS011;8154;50.830;12.082;2023-06-10T14:46:05;1.90;;;1.80;;
16099;SDS011;8154;50.830;12.082;2023-06-10T14:48:31;2.00;;;1.90;;
16099;SDS011;8154;50.830;12.082;2023-06-10T14:50:58;2.20;;;2.00;;
16099;SDS011;8154;50.830;12.082;2023-06-10T14:53:25;2.00;;;1.90;;
16099;SDS011;8154;50.830;12.082;2023-06-10T14:55:51;2.10;;;2.00;;
16099;SDS011;8154;50.830;12.082;2023-06-10T14:58:17;1.90;;;1.80;;
16099;SDS011;8154;50.830;12.082;2023-06-10T15:00:43;2.08;;;1.98;;